createdAt,value
2022-09-04T00:00:09.261Z,8.50
2022-09-04T00:02:59.718Z,8.50
2022-09-04T00:05:32.648Z,8.50
2022-09-04T00:08:15.454Z,8.50
2022-09-04T00:10:52.455Z,8.50
2022-09-04T00:13:24.650Z,8.50
2022-09-04T00:15:59.613Z,8.50
2022-09-04T00:18:36.668Z,8.50
2022-09-04T00:21:14.009Z,8.50
2022-09-04T00:23:49.833Z,8.50
2022-09-04T00:26:40.166Z,8.50
2022-09-04T00:29:21.238Z,8.40
2022-09-04T00:31:55.297Z,8.40
2022-09-04T00:34:47.407Z,8.30
2022-09-04T00:37:21.673Z,8.30
2022-09-04T00:39:55.203Z,8.30
2022-09-04T00:42:45.596Z,8.20
2022-09-04T00:45:34.875Z,8.20
2022-09-04T00:48:13.455Z,8.20
2022-09-04T00:51:04.220Z,8.20
2022-09-04T00:53:47.183Z,8.20
2022-09-04T00:56:42.452Z,8.20
2022-09-04T00:59:20.467Z,8.10
2022-09-04T01:01:56.186Z,8.10
2022-09-04T01:04:37.838Z,8.10
2022-09-04T01:07:25.115Z,8.10
2022-09-04T01:10:15.227Z,8.00
2022-09-04T01:12:51.509Z,8.00
2022-09-04T01:15:27.861Z,8.00
2022-09-04T01:18:05.693Z,8.00
2022-09-04T01:20:54.730Z,7.90
2022-09-04T01:23:46.319Z,7.90
2022-09-04T01:26:24.232Z,7.90
2022-09-04T01:29:07.606Z,7.80
2022-09-04T01:31:45.976Z,7.80
2022-09-04T01:34:34.266Z,7.70
2022-09-04T01:37:16.269Z,7.70
2022-09-04T01:39:50.350Z,7.60
2022-09-04T01:42:28.780Z,7.60
2022-09-04T01:44:57.394Z,7.70
2022-09-04T01:47:31.562Z,7.60
2022-09-04T01:50:04.983Z,7.60
2022-09-04T01:52:42.917Z,7.60
2022-09-04T01:55:31.004Z,7.60
2022-09-04T01:58:13.189Z,7.60
2022-09-04T02:00:50.834Z,7.60
2022-09-04T02:03:31.916Z,7.60
2022-09-04T02:06:09.965Z,7.60
2022-09-04T02:08:56.861Z,7.50
2022-09-04T02:11:29.623Z,7.50
2022-09-04T02:14:11.858Z,7.50
2022-09-04T02:16:47.916Z,7.50
2022-09-04T02:19:25.342Z,7.50
2022-09-04T02:22:03.172Z,7.50
2022-09-04T02:24:39.374Z,7.40
2022-09-04T02:27:14.417Z,7.40
2022-09-04T02:29:54.730Z,7.30
2022-09-04T02:32:32.945Z,7.40
2022-09-04T02:35:08.539Z,7.30
2022-09-04T02:37:47.821Z,7.30
2022-09-04T02:40:20.489Z,7.20
2022-09-04T02:43:01.239Z,7.20
2022-09-04T02:45:38.559Z,7.20
2022-09-04T02:48:14.443Z,7.20
2022-09-04T02:50:58.094Z,7.20
2022-09-04T02:53:34.099Z,7.10
2022-09-04T02:56:24.589Z,7.20
2022-09-04T02:59:08.560Z,7.20
2022-09-04T03:01:49.196Z,7.20
2022-09-04T03:04:26.436Z,7.20
2022-09-04T03:07:00.986Z,7.10
2022-09-04T03:09:34.438Z,7.10
2022-09-04T03:12:07.793Z,7.10
2022-09-04T03:14:44.266Z,7.10
2022-09-04T03:17:23.215Z,7.10
2022-09-04T03:20:00.052Z,7.10
2022-09-04T03:22:34.815Z,7.00
2022-09-04T03:25:11.198Z,7.00
2022-09-04T03:27:40.250Z,7.00
2022-09-04T03:30:11.360Z,7.00
2022-09-04T03:32:53.296Z,7.00
2022-09-04T03:35:31.413Z,7.00
2022-09-04T03:38:19.416Z,6.90
2022-09-04T03:41:05.674Z,6.90
2022-09-04T03:43:47.775Z,6.90
2022-09-04T03:46:28.246Z,6.90
2022-09-04T03:49:12.409Z,6.90
2022-09-04T03:51:53.442Z,6.90
2022-09-04T03:54:36.166Z,6.90
2022-09-04T03:57:19.982Z,7.00
2022-09-04T04:00:07.836Z,7.00
2022-09-04T04:02:52.039Z,7.00
2022-09-04T04:05:29.602Z,7.10
2022-09-04T04:08:28.046Z,7.00
2022-09-04T04:11:08.051Z,7.10
2022-09-04T04:14:04.763Z,7.10
2022-09-04T04:16:55.854Z,7.00
2022-09-04T04:19:37.046Z,7.20
2022-09-04T04:22:30.871Z,7.30
2022-09-04T04:25:25.608Z,7.40
2022-09-04T04:28:09.447Z,7.40
2022-09-04T04:30:47.341Z,7.50
2022-09-04T04:33:42.688Z,7.50
2022-09-04T04:36:20.957Z,7.60
2022-09-04T04:39:04.526Z,7.60
2022-09-04T04:42:05.948Z,7.70
2022-09-04T04:45:07.635Z,7.70
2022-09-04T04:47:54.060Z,7.80
2022-09-04T04:50:29.522Z,7.80
2022-09-04T04:53:07.214Z,7.90
2022-09-04T04:55:50.598Z,7.90
2022-09-04T04:58:45.407Z,8.00
2022-09-04T05:01:29.955Z,8.00
2022-09-04T05:04:09.442Z,8.10
2022-09-04T05:06:43.088Z,8.10
2022-09-04T05:09:17.642Z,8.20
2022-09-04T05:11:58.388Z,8.30
2022-09-04T05:14:44.468Z,8.40
2022-09-04T05:17:23.898Z,8.50
2022-09-04T05:20:00.635Z,8.60
2022-09-04T05:22:37.876Z,8.70
2022-09-04T05:25:15.045Z,8.90
2022-09-04T05:28:04.562Z,9.00
2022-09-04T05:30:44.100Z,9.10
2022-09-04T05:33:21.401Z,9.30
2022-09-04T05:35:56.456Z,9.40
2022-09-04T05:38:35.213Z,9.50
2022-09-04T05:41:08.993Z,9.70
2022-09-04T05:43:55.362Z,9.80
2022-09-04T05:46:42.275Z,10.00
2022-09-04T05:49:23.023Z,10.10
2022-09-04T05:52:21.875Z,10.20
2022-09-04T05:55:32.118Z,10.30
2022-09-04T05:58:26.110Z,10.50
2022-09-04T06:01:08.659Z,10.60
2022-09-04T06:04:14.835Z,10.70
2022-09-04T06:06:55.432Z,10.90
2022-09-04T06:09:40.933Z,11.10
2022-09-04T06:12:29.149Z,11.20
2022-09-04T06:15:15.796Z,11.40
2022-09-04T06:18:09.225Z,11.60
2022-09-04T06:20:50.243Z,11.80
2022-09-04T06:23:38.269Z,11.90
2022-09-04T06:26:29.214Z,12.10
2022-09-04T06:29:16.809Z,12.20
2022-09-04T06:32:06.852Z,12.40
2022-09-04T06:34:53.129Z,12.50
2022-09-04T06:37:33.595Z,12.50
2022-09-04T06:40:20.553Z,12.60
2022-09-04T06:43:01.324Z,12.70
2022-09-04T06:45:42.321Z,12.80
2022-09-04T06:48:19.959Z,12.90
2022-09-04T06:51:01.652Z,13.00
2022-09-04T06:53:42.837Z,13.30
2022-09-04T06:56:25.063Z,13.20
2022-09-04T06:59:15.021Z,13.30
2022-09-04T07:02:00.671Z,13.40
2022-09-04T07:04:45.993Z,13.60
2022-09-04T07:07:25.157Z,13.70
2022-09-04T07:10:01.482Z,13.80
2022-09-04T07:12:51.804Z,14.00
2022-09-04T07:15:47.541Z,14.10
2022-09-04T07:18:39.402Z,14.20
2022-09-04T07:21:15.595Z,14.30
2022-09-04T07:23:58.999Z,14.50
2022-09-04T07:26:38.146Z,14.60
2022-09-04T07:29:29.795Z,14.70
2022-09-04T07:32:06.308Z,14.80
2022-09-04T07:34:44.142Z,15.00
2022-09-04T07:37:25.235Z,15.10
2022-09-04T07:40:08.116Z,15.20
2022-09-04T07:42:43.606Z,15.30
2022-09-04T07:45:23.389Z,15.50
2022-09-04T07:48:07.331Z,15.60
2022-09-04T07:50:40.348Z,15.70
2022-09-04T07:53:29.498Z,16.00
2022-09-04T07:56:05.122Z,16.20
2022-09-04T07:58:55.383Z,16.30
2022-09-04T08:01:46.645Z,16.30
2022-09-04T08:04:38.320Z,16.50
2022-09-04T08:07:13.545Z,16.60
2022-09-04T08:10:07.897Z,16.70
2022-09-04T08:13:22.789Z,16.80
2022-09-04T08:16:06.557Z,16.90
2022-09-04T08:19:03.481Z,17.00
2022-09-04T08:21:35.678Z,17.10
2022-09-04T08:24:42.703Z,17.20
2022-09-04T08:27:20.483Z,17.40
2022-09-04T08:30:10.314Z,17.40
2022-09-04T08:33:01.216Z,17.50
2022-09-04T08:35:34.673Z,17.50
2022-09-04T08:38:20.546Z,17.50
2022-09-04T08:41:33.476Z,17.60
2022-09-04T08:44:38.361Z,17.70
2022-09-04T08:47:37.663Z,17.80
2022-09-04T08:50:31.983Z,18.00
2022-09-04T08:53:47.166Z,18.10
2022-09-04T08:56:27.474Z,18.30
2022-09-04T08:59:31.697Z,18.30
2022-09-04T09:02:32.877Z,18.40
2022-09-04T09:05:27.157Z,18.50
2022-09-04T09:08:31.890Z,18.50
2022-09-04T09:11:28.847Z,18.60
2022-09-04T09:14:34.521Z,18.60
2022-09-04T09:17:13.763Z,18.60
2022-09-04T09:19:53.708Z,18.50
2022-09-04T09:22:40.006Z,18.50
2022-09-04T09:25:21.222Z,18.60
2022-09-04T09:28:37.321Z,18.70
2022-09-04T09:31:40.216Z,18.80
2022-09-04T09:34:49.526Z,18.90
2022-09-04T09:37:45.103Z,19.20
2022-09-04T09:40:39.734Z,19.30
2022-09-04T09:43:42.280Z,19.40
2022-09-04T09:46:50.219Z,19.40
2022-09-04T09:49:48.807Z,19.70
2022-09-04T09:52:45.434Z,19.90
2022-09-04T09:55:56.103Z,20.20
2022-09-04T09:59:09.921Z,20.50
2022-09-04T10:02:01.324Z,20.90
2022-09-04T10:05:10.852Z,21.40
2022-09-04T10:08:12.724Z,21.80
2022-09-04T10:11:03.703Z,22.10
2022-09-04T10:14:07.195Z,22.40
2022-09-04T10:17:17.283Z,22.30
2022-09-04T10:20:23.756Z,22.10
2022-09-04T10:23:21.108Z,21.80
2022-09-04T10:26:13.452Z,21.50
2022-09-04T10:29:12.670Z,21.40
2022-09-04T10:31:57.815Z,21.30
2022-09-04T10:34:47.872Z,21.20
2022-09-04T10:37:32.234Z,21.20
2022-09-04T10:40:32.369Z,21.10
2022-09-04T10:43:24.860Z,21.00
2022-09-04T10:46:20.695Z,20.90
2022-09-04T10:49:21.479Z,21.00
2022-09-04T10:52:18.353Z,21.20
2022-09-04T10:55:08.262Z,21.30
2022-09-04T10:58:05.996Z,21.50
2022-09-04T11:00:50.297Z,21.80
2022-09-04T11:03:45.118Z,22.00
2022-09-04T11:06:40.596Z,22.10
2022-09-04T11:09:44.227Z,22.30
2022-09-04T11:12:41.698Z,22.40
2022-09-04T11:15:35.120Z,22.60
2022-09-04T11:18:34.950Z,22.70
2022-09-04T11:21:35.345Z,22.80
2022-09-04T11:25:00.165Z,22.90
2022-09-04T11:28:01.852Z,23.00
2022-09-04T11:30:39.540Z,23.00
2022-09-04T11:33:55.324Z,23.10
2022-09-04T11:36:51.207Z,23.10
2022-09-04T11:39:52.475Z,22.80
2022-09-04T11:42:35.567Z,22.60
2022-09-04T11:45:32.665Z,22.40
2022-09-04T11:48:24.687Z,22.50
2022-09-04T11:51:40.846Z,22.60
2022-09-04T11:54:30.940Z,22.60
2022-09-04T11:57:15.072Z,22.60
2022-09-04T12:00:09.294Z,22.50
2022-09-04T12:03:08.161Z,22.50
2022-09-04T12:06:01.002Z,22.50
2022-09-04T12:09:00.359Z,22.50
2022-09-04T12:12:21.353Z,22.50
2022-09-04T12:15:18.303Z,22.50
2022-09-04T12:18:22.546Z,22.50
2022-09-04T12:21:26.919Z,22.50
2022-09-04T12:24:20.536Z,22.30
2022-09-04T12:27:21.813Z,22.20
2022-09-04T12:30:07.889Z,22.00
2022-09-04T12:33:26.871Z,21.90
2022-09-04T12:36:26.667Z,21.80
2022-09-04T12:39:16.398Z,21.60
2022-09-04T12:41:55.448Z,21.50
2022-09-04T12:44:35.988Z,21.50
2022-09-04T12:47:23.558Z,21.50
2022-09-04T12:50:28.451Z,21.50
2022-09-04T12:53:21.129Z,21.60
2022-09-04T12:56:03.305Z,21.70
2022-09-04T12:58:52.471Z,21.80
2022-09-04T13:01:32.539Z,21.90
2022-09-04T13:04:13.252Z,22.00
2022-09-04T13:06:53.529Z,22.20
2022-09-04T13:09:32.620Z,22.60
2022-09-04T13:12:14.228Z,23.00
2022-09-04T13:15:03.093Z,23.30
2022-09-04T13:17:43.819Z,23.60
2022-09-04T13:20:22.810Z,23.70
2022-09-04T13:23:11.079Z,23.70
2022-09-04T13:25:53.480Z,23.70
2022-09-04T13:28:30.551Z,23.70
2022-09-04T13:31:09.824Z,23.60
2022-09-04T13:33:51.332Z,23.30
2022-09-04T13:36:35.392Z,23.00
2022-09-04T13:39:36.310Z,22.70
2022-09-04T13:42:31.498Z,22.30
2022-09-04T13:45:06.372Z,22.10
2022-09-04T13:47:45.207Z,22.10
2022-09-04T13:50:25.524Z,22.10
2022-09-04T13:53:00.134Z,22.20
2022-09-04T13:55:32.663Z,22.30
2022-09-04T13:58:11.183Z,22.40
2022-09-04T14:00:46.150Z,22.50
2022-09-04T14:03:32.365Z,22.60
2022-09-04T14:06:04.450Z,22.70
2022-09-04T14:08:39.620Z,22.80
2022-09-04T14:11:26.295Z,22.80
2022-09-04T14:14:15.970Z,22.90
2022-09-04T14:16:44.692Z,22.90
2022-09-04T14:19:36.025Z,22.90
2022-09-04T14:22:19.713Z,22.90
2022-09-04T14:24:58.316Z,22.90
2022-09-04T14:27:38.197Z,23.00
2022-09-04T14:30:09.054Z,23.00
2022-09-04T14:32:57.942Z,23.00
2022-09-04T14:35:35.409Z,23.00
2022-09-04T14:38:41.388Z,23.10
2022-09-04T14:41:35.939Z,23.30
2022-09-04T14:44:27.296Z,23.30
2022-09-04T14:47:07.604Z,23.30
2022-09-04T14:49:47.035Z,23.30
2022-09-04T14:52:20.062Z,23.20
2022-09-04T14:54:54.079Z,23.10
2022-09-04T14:57:30.225Z,22.90
2022-09-04T15:00:06.730Z,22.70
2022-09-04T15:02:42.481Z,22.50
2022-09-04T15:05:21.357Z,22.30
2022-09-04T15:08:00.044Z,22.30
2022-09-04T15:10:50.744Z,22.30
2022-09-04T15:13:48.939Z,22.20
2022-09-04T15:16:24.701Z,22.20
2022-09-04T15:18:59.165Z,22.10
2022-09-04T15:21:36.191Z,22.00
2022-09-04T15:24:26.193Z,21.80
2022-09-04T15:27:00.603Z,21.80
2022-09-04T15:29:38.823Z,21.80
2022-09-04T15:32:13.899Z,21.70
2022-09-04T15:34:43.282Z,21.60
2022-09-04T15:37:22.418Z,21.50
2022-09-04T15:40:02.608Z,21.40
2022-09-04T15:42:47.790Z,21.40
2022-09-04T15:45:24.243Z,21.20
2022-09-04T15:48:17.916Z,21.20
2022-09-04T15:51:01.285Z,21.10
2022-09-04T15:53:33.841Z,20.90
2022-09-04T15:56:10.861Z,20.80
2022-09-04T15:58:53.375Z,20.60
2022-09-04T16:01:28.623Z,20.50
2022-09-04T16:04:07.461Z,20.40
2022-09-04T16:06:47.015Z,20.40
2022-09-04T16:09:25.933Z,20.40
2022-09-04T16:12:04.523Z,20.30
2022-09-04T16:14:44.619Z,20.20
2022-09-04T16:17:21.548Z,20.00
2022-09-04T16:19:57.971Z,19.90
2022-09-04T16:22:36.581Z,19.70
2022-09-04T16:25:11.311Z,19.60
2022-09-04T16:27:48.899Z,19.50
2022-09-04T16:30:33.198Z,19.30
2022-09-04T16:33:04.496Z,19.30
2022-09-04T16:35:37.525Z,19.20
2022-09-04T16:38:15.397Z,19.00
2022-09-04T16:40:50.154Z,18.90
2022-09-04T16:43:27.175Z,18.80
2022-09-04T16:46:14.251Z,18.60
2022-09-04T16:48:52.005Z,18.40
2022-09-04T16:51:40.114Z,18.30
2022-09-04T16:54:18.551Z,18.30
2022-09-04T16:56:53.685Z,18.30
2022-09-04T16:59:46.102Z,18.30
2022-09-04T17:02:29.393Z,18.10
2022-09-04T17:05:23.061Z,18.10
2022-09-04T17:08:04.608Z,18.00
2022-09-04T17:10:41.639Z,17.90
2022-09-04T17:13:18.290Z,17.80
2022-09-04T17:15:58.132Z,17.70
2022-09-04T17:18:29.367Z,17.60
2022-09-04T17:25:19.589Z,17.50
2022-09-04T17:29:01.229Z,17.30
2022-09-04T17:29:10.271Z,17.40
2022-09-04T17:29:49.379Z,17.40
2022-09-04T17:33:17.805Z,17.30
2022-09-04T17:40:36.992Z,17.20
2022-09-04T17:40:48.845Z,17.00
2022-09-04T17:41:31.239Z,16.80
2022-09-04T17:44:20.228Z,16.60
2022-09-04T17:46:55.994Z,16.50
2022-09-04T17:49:34.730Z,16.30
2022-09-04T17:52:09.831Z,16.30
2022-09-04T17:54:49.114Z,16.20
2022-09-04T17:57:26.797Z,16.20
2022-09-04T18:00:05.074Z,16.30
2022-09-04T18:02:42.683Z,16.20
2022-09-04T18:05:20.172Z,16.10
2022-09-04T18:08:09.712Z,16.00
2022-09-04T18:10:52.081Z,16.10
2022-09-04T18:13:37.791Z,15.90
2022-09-04T18:16:15.686Z,15.90
2022-09-04T18:18:48.262Z,15.90
2022-09-04T18:21:23.103Z,15.90
2022-09-04T18:24:03.122Z,16.00
2022-09-04T18:26:42.461Z,16.00
2022-09-04T18:32:25.268Z,16.00
2022-09-04T18:37:07.005Z,16.00
2022-09-04T18:37:16.826Z,15.90
2022-09-04T18:38:39.048Z,15.90
2022-09-04T18:47:13.400Z,15.90
2022-09-04T18:50:30.330Z,16.00
2022-09-04T18:50:38.906Z,16.00
2022-09-04T18:50:51.326Z,16.00
2022-09-04T18:53:15.305Z,15.90
2022-09-04T18:55:48.202Z,15.90
2022-09-04T18:58:42.848Z,15.90
2022-09-04T19:01:20.366Z,16.00
2022-09-04T19:03:59.934Z,15.90
2022-09-04T19:06:35.018Z,16.00
2022-09-04T19:09:12.741Z,16.00
2022-09-04T19:11:48.067Z,16.10
2022-09-04T19:14:20.584Z,16.10
2022-09-04T19:16:54.295Z,16.10
2022-09-04T19:19:30.235Z,16.10
2022-09-04T19:22:07.547Z,16.20
2022-09-04T19:24:43.256Z,16.20
2022-09-04T19:27:27.703Z,16.20
2022-09-04T19:30:18.249Z,16.20
2022-09-04T19:33:06.536Z,16.20
2022-09-04T19:35:39.364Z,16.10
2022-09-04T19:42:33.961Z,16.10
2022-09-04T19:46:03.816Z,16.10
2022-09-04T19:46:17.920Z,16.10
2022-09-04T19:47:04.668Z,16.10
2022-09-04T19:53:20.165Z,16.00
2022-09-04T19:53:30.876Z,15.90
2022-09-04T19:55:41.610Z,15.90
2022-09-04T19:58:12.072Z,15.80
2022-09-04T20:00:48.571Z,15.70
2022-09-04T20:03:29.407Z,15.60
2022-09-04T20:06:21.153Z,15.50
2022-09-04T20:08:56.428Z,15.50
2022-09-04T20:11:35.300Z,15.60
2022-09-04T20:14:15.334Z,15.60
2022-09-04T20:16:53.299Z,15.50
2022-09-04T20:19:28.657Z,15.40
2022-09-04T20:22:03.147Z,15.20
2022-09-04T20:24:41.007Z,15.20
2022-09-04T20:27:16.089Z,15.20
2022-09-04T20:29:54.794Z,15.20
2022-09-04T20:32:29.214Z,15.10
2022-09-04T20:35:13.518Z,15.10
2022-09-04T20:37:51.593Z,15.10
2022-09-04T20:40:31.769Z,15.10
2022-09-04T20:43:13.342Z,15.20
2022-09-04T20:49:52.401Z,15.10
2022-09-04T20:52:57.007Z,15.00
2022-09-04T20:52:59.315Z,15.00
2022-09-04T20:55:01.612Z,14.90
2022-09-04T21:03:09.940Z,14.90
2022-09-04T21:03:12.997Z,14.80
2022-09-04T21:03:35.749Z,14.80
2022-09-04T21:06:25.441Z,14.70
2022-09-04T21:09:06.060Z,14.80
2022-09-04T21:11:42.049Z,14.80
2022-09-04T21:14:18.124Z,14.70
2022-09-04T21:17:35.204Z,14.70
2022-09-04T21:20:31.319Z,14.80
2022-09-04T21:23:34.733Z,14.70
2022-09-04T21:26:14.890Z,14.50
2022-09-04T21:29:11.311Z,14.40
2022-09-04T21:32:21.129Z,14.30
2022-09-04T21:35:00.054Z,14.20
2022-09-04T21:37:39.930Z,14.10
2022-09-04T21:40:50.471Z,14.10
2022-09-04T21:43:55.827Z,14.10
2022-09-04T21:46:53.504Z,14.00
2022-09-04T21:50:16.860Z,14.00
2022-09-04T21:53:12.720Z,14.10
2022-09-04T21:57:11.745Z,14.00
2022-09-04T22:02:37.305Z,14.00
2022-09-04T22:02:39.686Z,13.90
2022-09-04T22:05:16.289Z,13.90
2022-09-04T22:10:14.053Z,13.80
2022-09-04T22:13:42.497Z,13.90
2022-09-04T22:13:51.475Z,13.90
2022-09-04T22:16:37.444Z,14.00
2022-09-04T22:19:20.814Z,14.00
2022-09-04T22:22:04.138Z,14.00
2022-09-04T22:25:02.134Z,14.00
2022-09-04T22:28:10.151Z,14.10
2022-09-04T22:30:56.935Z,14.00
2022-09-04T22:34:16.834Z,13.90
2022-09-04T22:37:07.898Z,13.90
2022-09-04T22:40:17.406Z,13.90
2022-09-04T22:42:51.830Z,13.80
2022-09-04T22:45:48.978Z,13.70
2022-09-04T22:48:47.868Z,13.70
2022-09-04T22:51:46.693Z,13.70
2022-09-04T22:54:40.288Z,13.80
2022-09-04T22:57:12.831Z,13.80
2022-09-04T23:00:09.656Z,13.80
2022-09-04T23:03:09.208Z,13.70
2022-09-04T23:08:22.929Z,13.60
2022-09-04T23:13:45.050Z,13.40
2022-09-04T23:13:56.781Z,13.30
2022-09-04T23:15:52.647Z,13.10
2022-09-04T23:24:37.813Z,13.00
2022-09-04T23:26:42.219Z,13.00
2022-09-04T23:26:42.225Z,12.80
2022-09-04T23:28:15.497Z,12.60
2022-09-04T23:31:19.770Z,12.50
2022-09-04T23:34:10.255Z,12.50
2022-09-04T23:37:03.206Z,12.50
2022-09-04T23:40:04.981Z,12.50
2022-09-04T23:43:07.584Z,12.40
2022-09-04T23:46:01.887Z,12.30
2022-09-04T23:49:06.621Z,12.30
2022-09-04T23:51:50.441Z,12.20
2022-09-04T23:54:49.298Z,12.00
2022-09-04T23:57:26.587Z,11.90
